sensor_id;sensor_type;location;lat;lon;timestamp;temperature;humidity
72602;DHT22;60644;55.858;37.390;2023-02-28T00:01:12;-5.63;69.14
72602;DHT22;60644;55.858;37.390;2023-02-28T00:03:39;-5.61;68.88
72602;DHT22;60644;55.858;37.390;2023-02-28T00:06:05;-5.56;68.58
72602;DHT22;60644;55.858;37.390;2023-02-28T00:08:32;-5.57;68.68
72602;DHT22;60644;55.858;37.390;2023-02-28T00:11:06;-5.69;68.79
72602;DHT22;60644;55.858;37.390;2023-02-28T00:13:35;-5.69;68.61
72602;DHT22;60644;55.858;37.390;2023-02-28T00:16:05;-5.68;68.60
72602;DHT22;60644;55.858;37.390;2023-02-28T00:18:32;-5.68;68.51
72602;DHT22;60644;55.858;37.390;2023-02-28T00:20:58;-5.85;69.33
72602;DHT22;60644;55.858;37.390;2023-02-28T00:23:25;-5.94;69.57
72602;DHT22;60644;55.858;37.390;2023-02-28T00:25:51;-5.98;69.55
72602;DHT22;60644;55.858;37.390;2023-02-28T00:28:17;-6.13;70.28
72602;DHT22;60644;55.858;37.390;2023-02-28T00:30:43;-6.03;69.81
72602;DHT22;60644;55.858;37.390;2023-02-28T00:33:09;-5.93;69.47
72602;DHT22;60644;55.858;37.390;2023-02-28T00:35:35;-5.90;69.45
72602;DHT22;60644;55.858;37.390;2023-02-28T00:38:01;-5.81;69.18
72602;DHT22;60644;55.858;37.390;2023-02-28T00:40:28;-5.78;69.10
72602;DHT22;60644;55.858;37.390;2023-02-28T00:42:54;-5.78;68.91
72602;DHT22;60644;55.858;37.390;2023-02-28T00:45:20;-5.77;68.87
72602;DHT22;60644;55.858;37.390;2023-02-28T00:47:46;-5.73;68.87
72602;DHT22;60644;55.858;37.390;2023-02-28T00:50:18;-5.99;69.59
72602;DHT22;60644;55.858;37.390;2023-02-28T00:52:46;-5.93;69.21
72602;DHT22;60644;55.858;37.390;2023-02-28T00:55:14;-5.97;69.69
72602;DHT22;60644;55.858;37.390;2023-02-28T00:57:40;-5.99;69.51
72602;DHT22;60644;55.858;37.390;2023-02-28T01:00:06;-5.96;69.65
72602;DHT22;60644;55.858;37.390;2023-02-28T01:02:32;-6.02;69.68
72602;DHT22;60644;55.858;37.390;2023-02-28T01:04:58;-6.02;69.68
72602;DHT22;60644;55.858;37.390;2023-02-28T01:07:24;-5.94;69.33
72602;DHT22;60644;55.858;37.390;2023-02-28T01:09:50;-5.99;69.69
72602;DHT22;60644;55.858;37.390;2023-02-28T01:12:16;-5.96;69.52
72602;DHT22;60644;55.858;37.390;2023-02-28T01:14:42;-5.96;69.42
72602;DHT22;60644;55.858;37.390;2023-02-28T01:17:08;-5.98;69.51
72602;DHT22;60644;55.858;37.390;2023-02-28T01:19:34;-6.00;69.72
72602;DHT22;60644;55.858;37.390;2023-02-28T01:22:03;-5.99;69.58
72602;DHT22;60644;55.858;37.390;2023-02-28T01:24:30;-5.92;69.39
72602;DHT22;60644;55.858;37.390;2023-02-28T01:26:56;-5.87;69.20
72602;DHT22;60644;55.858;37.390;2023-02-28T01:29:22;-5.85;69.06
72602;DHT22;60644;55.858;37.390;2023-02-28T01:31:47;-5.94;69.32
72602;DHT22;60644;55.858;37.390;2023-02-28T01:34:13;-6.19;70.13
72602;DHT22;60644;55.858;37.390;2023-02-28T01:36:39;-6.32;70.85
72602;DHT22;60644;55.858;37.390;2023-02-28T01:39:05;-6.37;71.07
72602;DHT22;60644;55.858;37.390;2023-02-28T01:41:33;-6.42;71.26
72602;DHT22;60644;55.858;37.390;2023-02-28T01:44:05;-6.55;71.88
72602;DHT22;60644;55.858;37.390;2023-02-28T01:46:34;-6.44;71.38
72602;DHT22;60644;55.858;37.390;2023-02-28T01:49:01;-6.31;71.09
72602;DHT22;60644;55.858;37.390;2023-02-28T01:51:51;-6.37;71.19
72602;DHT22;60644;55.858;37.390;2023-02-28T01:54:40;-6.44;71.68
72602;DHT22;60644;55.858;37.390;2023-02-28T01:57:10;-6.52;72.06
72602;DHT22;60644;55.858;37.390;2023-02-28T01:59:45;-6.50;72.00
72602;DHT22;60644;55.858;37.390;2023-02-28T02:02:18;-6.48;71.88
72602;DHT22;60644;55.858;37.390;2023-02-28T02:04:53;-6.55;72.22
72602;DHT22;60644;55.858;37.390;2023-02-28T02:07:20;-6.47;72.07
72602;DHT22;60644;55.858;37.390;2023-02-28T02:09:46;-6.47;72.00
72602;DHT22;60644;55.858;37.390;2023-02-28T02:15:25;-6.52;72.31
72602;DHT22;60644;55.858;37.390;2023-02-28T02:17:56;-6.51;72.32
72602;DHT22;60644;55.858;37.390;2023-02-28T02:20:58;-6.47;72.20
72602;DHT22;60644;55.858;37.390;2023-02-28T02:26:38;-6.45;72.10
72602;DHT22;60644;55.858;37.390;2023-02-28T02:32:20;-6.59;72.54
72602;DHT22;60644;55.858;37.390;2023-02-28T02:34:58;-6.58;72.65
72602;DHT22;60644;55.858;37.390;2023-02-28T02:37:51;-6.71;73.28
72602;DHT22;60644;55.858;37.390;2023-02-28T02:40:32;-6.75;73.35
72602;DHT22;60644;55.858;37.390;2023-02-28T02:43:03;-6.70;73.30
72602;DHT22;60644;55.858;37.390;2023-02-28T02:45:45;-6.62;73.07
72602;DHT22;60644;55.858;37.390;2023-02-28T02:48:15;-6.63;73.00
72602;DHT22;60644;55.858;37.390;2023-02-28T02:50:46;-6.65;72.87
72602;DHT22;60644;55.858;37.390;2023-02-28T02:53:14;-6.74;73.34
72602;DHT22;60644;55.858;37.390;2023-02-28T02:55:44;-6.71;73.12
72602;DHT22;60644;55.858;37.390;2023-02-28T02:58:18;-6.74;72.78
72602;DHT22;60644;55.858;37.390;2023-02-28T03:00:50;-6.72;73.04
72602;DHT22;60644;55.858;37.390;2023-02-28T03:03:18;-6.65;72.71
72602;DHT22;60644;55.858;37.390;2023-02-28T03:05:48;-6.67;72.56
72602;DHT22;60644;55.858;37.390;2023-02-28T03:08:15;-6.62;72.45
72602;DHT22;60644;55.858;37.390;2023-02-28T03:10:43;-6.83;72.64
72602;DHT22;60644;55.858;37.390;2023-02-28T03:18:43;-6.72;72.64
72602;DHT22;60644;55.858;37.390;2023-02-28T03:21:35;-6.72;72.57
72602;DHT22;60644;55.858;37.390;2023-02-28T03:24:11;-6.76;72.74
72602;DHT22;60644;55.858;37.390;2023-02-28T03:26:42;-6.82;72.83
72602;DHT22;60644;55.858;37.390;2023-02-28T03:29:24;-6.75;72.61
72602;DHT22;60644;55.858;37.390;2023-02-28T03:32:05;-6.88;72.96
72602;DHT22;60644;55.858;37.390;2023-02-28T03:34:50;-6.88;72.95
72602;DHT22;60644;55.858;37.390;2023-02-28T03:37:22;-6.87;72.87
72602;DHT22;60644;55.858;37.390;2023-02-28T03:39:56;-6.82;72.47
72602;DHT22;60644;55.858;37.390;2023-02-28T03:42:27;-6.74;72.38
72602;DHT22;60644;55.858;37.390;2023-02-28T03:44:58;-6.92;72.39
72602;DHT22;60644;55.858;37.390;2023-02-28T03:47:32;-6.86;72.62
72602;DHT22;60644;55.858;37.390;2023-02-28T03:50:05;-6.88;72.62
72602;DHT22;60644;55.858;37.390;2023-02-28T03:52:35;-6.86;72.32
72602;DHT22;60644;55.858;37.390;2023-02-28T03:55:07;-6.83;72.29
72602;DHT22;60644;55.858;37.390;2023-02-28T03:57:42;-6.97;72.25
72602;DHT22;60644;55.858;37.390;2023-02-28T04:00:21;-6.94;72.56
72602;DHT22;60644;55.858;37.390;2023-02-28T04:02:50;-6.97;72.46
72602;DHT22;60644;55.858;37.390;2023-02-28T04:05:19;-6.93;72.18
72602;DHT22;60644;55.858;37.390;2023-02-28T04:07:46;-6.96;71.93
72602;DHT22;60644;55.858;37.390;2023-02-28T04:10:12;-6.91;72.00
72602;DHT22;60644;55.858;37.390;2023-02-28T04:12:38;-6.77;71.74
72602;DHT22;60644;55.858;37.390;2023-02-28T04:15:05;-6.77;71.27
72602;DHT22;60644;55.858;37.390;2023-02-28T04:17:31;-6.73;70.96
72602;DHT22;60644;55.858;37.390;2023-02-28T04:19:57;-6.67;70.80
72602;DHT22;60644;55.858;37.390;2023-02-28T04:22:23;-6.59;70.43
72602;DHT22;60644;55.858;37.390;2023-02-28T04:24:52;-6.52;69.96
72602;DHT22;60644;55.858;37.390;2023-02-28T04:27:19;-6.50;69.49
72602;DHT22;60644;55.858;37.390;2023-02-28T04:29:45;-6.51;69.28
72602;DHT22;60644;55.858;37.390;2023-02-28T04:32:11;-6.59;69.49
72602;DHT22;60644;55.858;37.390;2023-02-28T04:34:37;-6.58;69.22
72602;DHT22;60644;55.858;37.390;2023-02-28T04:37:03;-6.71;69.65
72602;DHT22;60644;55.858;37.390;2023-02-28T04:39:30;-6.63;69.33
72602;DHT22;60644;55.858;37.390;2023-02-28T04:41:56;-6.68;69.22
72602;DHT22;60644;55.858;37.390;2023-02-28T04:44:22;-6.72;69.33
72602;DHT22;60644;55.858;37.390;2023-02-28T04:46:48;-6.74;69.37
72602;DHT22;60644;55.858;37.390;2023-02-28T04:49:15;-6.83;69.48
72602;DHT22;60644;55.858;37.390;2023-02-28T04:51:41;-6.86;69.65
72602;DHT22;60644;55.858;37.390;2023-02-28T04:54:07;-6.81;69.65
72602;DHT22;60644;55.858;37.390;2023-02-28T04:56:34;-6.74;69.44
72602;DHT22;60644;55.858;37.390;2023-02-28T04:58:59;-6.77;69.36
72602;DHT22;60644;55.858;37.390;2023-02-28T05:01:31;-6.83;69.43
72602;DHT22;60644;55.858;37.390;2023-02-28T05:04:00;-6.77;69.16
72602;DHT22;60644;55.858;37.390;2023-02-28T05:06:28;-6.85;69.08
72602;DHT22;60644;55.858;37.390;2023-02-28T05:08:55;-6.74;68.99
72602;DHT22;60644;55.858;37.390;2023-02-28T05:11:27;-6.82;68.52
72602;DHT22;60644;55.858;37.390;2023-02-28T05:13:55;-6.86;68.65
72602;DHT22;60644;55.858;37.390;2023-02-28T05:16:21;-6.82;68.36
72602;DHT22;60644;55.858;37.390;2023-02-28T05:18:47;-6.76;68.42
72602;DHT22;60644;55.858;37.390;2023-02-28T05:21:40;-6.78;68.29
72602;DHT22;60644;55.858;37.390;2023-02-28T05:24:09;-6.67;68.26
72602;DHT22;60644;55.858;37.390;2023-02-28T05:26:38;-6.51;68.07
72602;DHT22;60644;55.858;37.390;2023-02-28T05:29:04;-6.50;67.01
72602;DHT22;60644;55.858;37.390;2023-02-28T05:31:30;-6.67;67.28
72602;DHT22;60644;55.858;37.390;2023-02-28T05:33:56;-6.57;66.99
72602;DHT22;60644;55.858;37.390;2023-02-28T05:36:23;-6.45;66.69
72602;DHT22;60644;55.858;37.390;2023-02-28T05:38:49;-6.43;66.65
72602;DHT22;60644;55.858;37.390;2023-02-28T05:41:16;-6.49;66.55
72602;DHT22;60644;55.858;37.390;2023-02-28T05:43:43;-6.48;66.65
72602;DHT22;60644;55.858;37.390;2023-02-28T05:46:10;-6.38;66.18
72602;DHT22;60644;55.858;37.390;2023-02-28T05:48:38;-6.51;66.53
72602;DHT22;60644;55.858;37.390;2023-02-28T05:51:04;-6.34;66.20
72602;DHT22;60644;55.858;37.390;2023-02-28T05:53:31;-6.12;65.79
72602;DHT22;60644;55.858;37.390;2023-02-28T05:55:57;-5.89;65.75
72602;DHT22;60644;55.858;37.390;2023-02-28T05:58:23;-5.91;64.06
72602;DHT22;60644;55.858;37.390;2023-02-28T06:00:51;-5.99;63.92
72602;DHT22;60644;55.858;37.390;2023-02-28T06:03:17;-5.91;63.89
72602;DHT22;60644;55.858;37.390;2023-02-28T06:05:42;-5.99;63.55
72602;DHT22;60644;55.858;37.390;2023-02-28T06:08:08;-5.92;63.82
72602;DHT22;60644;55.858;37.390;2023-02-28T06:10:34;-5.82;62.78
72602;DHT22;60644;55.858;37.390;2023-02-28T06:13:02;-5.72;63.00
72602;DHT22;60644;55.858;37.390;2023-02-28T06:15:29;-5.61;62.21
72602;DHT22;60644;55.858;37.390;2023-02-28T06:17:55;-5.56;62.20
72602;DHT22;60644;55.858;37.390;2023-02-28T06:20:23;-5.49;62.24
72602;DHT22;60644;55.858;37.390;2023-02-28T06:22:49;-5.47;61.15
72602;DHT22;60644;55.858;37.390;2023-02-28T06:25:20;-5.35;61.65
72602;DHT22;60644;55.858;37.390;2023-02-28T06:27:45;-5.30;61.00
72602;DHT22;60644;55.858;37.390;2023-02-28T06:30:12;-5.23;61.93
72602;DHT22;60644;55.858;37.390;2023-02-28T06:32:38;-5.13;61.50
72602;DHT22;60644;55.858;37.390;2023-02-28T06:35:04;-5.00;61.76
72602;DHT22;60644;55.858;37.390;2023-02-28T06:37:32;-4.99;61.63
72602;DHT22;60644;55.858;37.390;2023-02-28T06:39:57;-4.89;61.86
72602;DHT22;60644;55.858;37.390;2023-02-28T06:42:24;-4.81;62.00
72602;DHT22;60644;55.858;37.390;2023-02-28T06:44:57;-4.91;61.38
72602;DHT22;60644;55.858;37.390;2023-02-28T06:47:23;-4.85;61.44
72602;DHT22;60644;55.858;37.390;2023-02-28T06:49:50;-4.81;61.52
72602;DHT22;60644;55.858;37.390;2023-02-28T06:52:18;-4.72;61.79
72602;DHT22;60644;55.858;37.390;2023-02-28T06:54:44;-4.74;61.29
72602;DHT22;60644;55.858;37.390;2023-02-28T06:57:09;-4.69;61.70
72602;DHT22;60644;55.858;37.390;2023-02-28T06:59:35;-4.74;61.83
72602;DHT22;60644;55.858;37.390;2023-02-28T07:02:02;-4.88;62.64
72602;DHT22;60644;55.858;37.390;2023-02-28T07:04:28;-4.73;62.66
72602;DHT22;60644;55.858;37.390;2023-02-28T07:06:55;-4.56;62.61
72602;DHT22;60644;55.858;37.390;2023-02-28T07:09:23;-4.60;62.32
72602;DHT22;60644;55.858;37.390;2023-02-28T07:11:49;-4.55;62.63
72602;DHT22;60644;55.858;37.390;2023-02-28T07:14:15;-4.43;62.56
72602;DHT22;60644;55.858;37.390;2023-02-28T07:16:40;-4.25;62.77
72602;DHT22;60644;55.858;37.390;2023-02-28T07:19:06;-4.21;62.27
72602;DHT22;60644;55.858;37.390;2023-02-28T07:21:32;-4.10;61.99
72602;DHT22;60644;55.858;37.390;2023-02-28T07:23:58;-4.02;61.79
72602;DHT22;60644;55.858;37.390;2023-02-28T07:26:24;-3.97;62.31
72602;DHT22;60644;55.858;37.390;2023-02-28T07:28:49;-4.02;62.22
72602;DHT22;60644;55.858;37.390;2023-02-28T07:31:16;-4.08;62.41
72602;DHT22;60644;55.858;37.390;2023-02-28T07:33:42;-4.05;62.92
72602;DHT22;60644;55.858;37.390;2023-02-28T07:36:17;-3.87;63.02
72602;DHT22;60644;55.858;37.390;2023-02-28T07:38:48;-3.75;62.76
72602;DHT22;60644;55.858;37.390;2023-02-28T07:41:20;-3.79;62.99
72602;DHT22;60644;55.858;37.390;2023-02-28T07:43:47;-3.97;63.76
72602;DHT22;60644;55.858;37.390;2023-02-28T07:46:14;-3.83;63.69
72602;DHT22;60644;55.858;37.390;2023-02-28T07:48:41;-3.64;63.37
72602;DHT22;60644;55.858;37.390;2023-02-28T07:51:07;-3.61;62.61
72602;DHT22;60644;55.858;37.390;2023-02-28T07:53:33;-3.64;62.98
72602;DHT22;60644;55.858;37.390;2023-02-28T07:56:01;-3.46;62.91
72602;DHT22;60644;55.858;37.390;2023-02-28T07:58:29;-3.35;62.74
72602;DHT22;60644;55.858;37.390;2023-02-28T08:00:56;-3.25;62.53
72602;DHT22;60644;55.858;37.390;2023-02-28T08:03:22;-3.25;62.18
72602;DHT22;60644;55.858;37.390;2023-02-28T08:05:49;-3.23;62.31
72602;DHT22;60644;55.858;37.390;2023-02-28T08:08:16;-3.32;62.79
72602;DHT22;60644;55.858;37.390;2023-02-28T08:10:42;-3.36;63.65
72602;DHT22;60644;55.858;37.390;2023-02-28T08:13:09;-3.18;63.57
72602;DHT22;60644;55.858;37.390;2023-02-28T08:15:34;-3.32;63.74
72602;DHT22;60644;55.858;37.390;2023-02-28T08:18:00;-3.19;63.77
72602;DHT22;60644;55.858;37.390;2023-02-28T08:20:26;-3.06;63.50
72602;DHT22;60644;55.858;37.390;2023-02-28T08:22:53;-3.08;63.64
72602;DHT22;60644;55.858;37.390;2023-02-28T08:25:19;-3.01;0.00
72602;DHT22;60644;55.858;37.390;2023-02-28T08:27:45;-2.89;63.82
72602;DHT22;60644;55.858;37.390;2023-02-28T08:30:12;-2.82;63.80
72602;DHT22;60644;55.858;37.390;2023-02-28T08:32:39;-2.76;63.83
72602;DHT22;60644;55.858;37.390;2023-02-28T08:35:05;-2.72;63.58
72602;DHT22;60644;55.858;37.390;2023-02-28T08:37:31;-2.66;63.68
72602;DHT22;60644;55.858;37.390;2023-02-28T08:39:57;-2.59;63.73
72602;DHT22;60644;55.858;37.390;2023-02-28T08:42:24;-2.61;63.67
72602;DHT22;60644;55.858;37.390;2023-02-28T08:44:49;-2.60;63.48
72602;DHT22;60644;55.858;37.390;2023-02-28T08:47:15;-2.61;63.44
72602;DHT22;60644;55.858;37.390;2023-02-28T08:49:41;-2.62;63.69
72602;DHT22;60644;55.858;37.390;2023-02-28T08:52:07;-2.58;63.86
72602;DHT22;60644;55.858;37.390;2023-02-28T08:54:33;-2.59;63.77
72602;DHT22;60644;55.858;37.390;2023-02-28T08:57:00;-2.56;63.91
72602;DHT22;60644;55.858;37.390;2023-02-28T08:59:26;-2.51;63.96
72602;DHT22;60644;55.858;37.390;2023-02-28T09:01:52;-2.78;64.96
72602;DHT22;60644;55.858;37.390;2023-02-28T09:04:17;-2.74;64.85
72602;DHT22;60644;55.858;37.390;2023-02-28T09:06:43;-2.68;64.62
72602;DHT22;60644;55.858;37.390;2023-02-28T09:09:10;-2.54;64.43
72602;DHT22;60644;55.858;37.390;2023-02-28T09:11:36;-2.48;64.18
72602;DHT22;60644;55.858;37.390;2023-02-28T09:14:02;-2.54;64.52
72602;DHT22;60644;55.858;37.390;2023-02-28T09:16:32;-2.39;64.19
72602;DHT22;60644;55.858;37.390;2023-02-28T09:18:58;-2.28;64.00
72602;DHT22;60644;55.858;37.390;2023-02-28T09:21:24;-2.29;63.63
72602;DHT22;60644;55.858;37.390;2023-02-28T09:23:50;-2.36;64.18
72602;DHT22;60644;55.858;37.390;2023-02-28T09:26:20;-2.28;64.02
72602;DHT22;60644;55.858;37.390;2023-02-28T09:28:45;-2.26;63.99
72602;DHT22;60644;55.858;37.390;2023-02-28T09:31:13;-2.19;64.14
72602;DHT22;60644;55.858;37.390;2023-02-28T09:33:39;-2.13;64.04
72602;DHT22;60644;55.858;37.390;2023-02-28T09:36:05;-2.02;64.14
72602;DHT22;60644;55.858;37.390;2023-02-28T09:38:31;-2.04;63.98
72602;DHT22;60644;55.858;37.390;2023-02-28T09:41:03;-2.10;64.13
72602;DHT22;60644;55.858;37.390;2023-02-28T09:43:35;-2.03;64.14
72602;DHT22;60644;55.858;37.390;2023-02-28T09:46:14;-1.97;63.94
72602;DHT22;60644;55.858;37.390;2023-02-28T09:48:45;-1.94;64.20
72602;DHT22;60644;55.858;37.390;2023-02-28T09:51:33;-2.00;64.03
72602;DHT22;60644;55.858;37.390;2023-02-28T09:53:58;-2.13;64.31
72602;DHT22;60644;55.858;37.390;2023-02-28T09:56:31;-2.27;65.30
72602;DHT22;60644;55.858;37.390;2023-02-28T10:07:21;-2.51;66.53
72602;DHT22;60644;55.858;37.390;2023-02-28T10:09:53;-2.42;66.69
72602;DHT22;60644;55.858;37.390;2023-02-28T10:12:20;-2.29;66.26
72602;DHT22;60644;55.858;37.390;2023-02-28T10:14:49;-2.18;65.91
72602;DHT22;60644;55.858;37.390;2023-02-28T10:17:23;-2.10;65.55
72602;DHT22;60644;55.858;37.390;2023-02-28T10:22:20;-2.12;65.86
72602;DHT22;60644;55.858;37.390;2023-02-28T10:24:50;-2.19;66.14
72602;DHT22;60644;55.858;37.390;2023-02-28T10:27:19;-2.05;66.00
72602;DHT22;60644;55.858;37.390;2023-02-28T10:29:50;-2.13;66.14
72602;DHT22;60644;55.858;37.390;2023-02-28T10:32:21;-2.10;66.31
72602;DHT22;60644;55.858;37.390;2023-02-28T10:35:10;-2.00;66.06
72602;DHT22;60644;55.858;37.390;2023-02-28T10:37:48;-2.02;66.04
72602;DHT22;60644;55.858;37.390;2023-02-28T10:45:39;-1.90;66.13
72602;DHT22;60644;55.858;37.390;2023-02-28T10:51:00;-1.94;66.66
72602;DHT22;60644;55.858;37.390;2023-02-28T10:53:37;-1.92;66.75
72602;DHT22;60644;55.858;37.390;2023-02-28T10:56:16;-1.88;66.75
72602;DHT22;60644;55.858;37.390;2023-02-28T10:59:03;-1.84;66.80
72602;DHT22;60644;55.858;37.390;2023-02-28T11:01:46;-2.10;68.04
72602;DHT22;60644;55.858;37.390;2023-02-28T11:07:17;-2.06;68.36
72602;DHT22;60644;55.858;37.390;2023-02-28T11:09:52;-2.05;68.79
72602;DHT22;60644;55.858;37.390;2023-02-28T11:12:23;-2.12;69.11
72602;DHT22;60644;55.858;37.390;2023-02-28T11:14:56;-2.24;69.97
72602;DHT22;60644;55.858;37.390;2023-02-28T11:17:28;-1.95;68.87
72602;DHT22;60644;55.858;37.390;2023-02-28T11:20:01;-1.89;68.87
72602;DHT22;60644;55.858;37.390;2023-02-28T11:22:32;-1.74;68.35
72602;DHT22;60644;55.858;37.390;2023-02-28T11:25:02;-1.71;68.34
72602;DHT22;60644;55.858;37.390;2023-02-28T11:29:59;-1.48;67.62
72602;DHT22;60644;55.858;37.390;2023-02-28T11:32:27;-1.38;67.41
72602;DHT22;60644;55.858;37.390;2023-02-28T11:35:03;-1.32;67.49
72602;DHT22;60644;55.858;37.390;2023-02-28T11:37:31;-1.29;67.59
72602;DHT22;60644;55.858;37.390;2023-02-28T11:39:58;-1.24;67.60
72602;DHT22;60644;55.858;37.390;2023-02-28T11:45:36;-1.30;68.69
72602;DHT22;60644;55.858;37.390;2023-02-28T11:48:32;-1.34;69.65
72602;DHT22;60644;55.858;37.390;2023-02-28T11:51:08;-1.53;71.58
72602;DHT22;60644;55.858;37.390;2023-02-28T12:02:16;-1.49;71.87
72602;DHT22;60644;55.858;37.390;2023-02-28T12:10:29;-1.49;72.01
72602;DHT22;60644;55.858;37.390;2023-02-28T12:13:31;-1.46;71.90
72602;DHT22;60644;55.858;37.390;2023-02-28T12:18:55;-1.43;71.87
72602;DHT22;60644;55.858;37.390;2023-02-28T12:26:40;-1.67;74.33
72602;DHT22;60644;55.858;37.390;2023-02-28T12:29:23;-1.67;74.37
72602;DHT22;60644;55.858;37.390;2023-02-28T12:31:59;-1.59;73.81
72602;DHT22;60644;55.858;37.390;2023-02-28T12:34:30;-1.62;74.31
72602;DHT22;60644;55.858;37.390;2023-02-28T12:36:58;-1.60;74.25
72602;DHT22;60644;55.858;37.390;2023-02-28T12:39:29;-1.57;74.35
72602;DHT22;60644;55.858;37.390;2023-02-28T12:42:05;-1.56;74.23
72602;DHT22;60644;55.858;37.390;2023-02-28T12:45:45;-1.55;74.08
72602;DHT22;60644;55.858;37.390;2023-02-28T12:47:59;-1.59;74.51
72602;DHT22;60644;55.858;37.390;2023-02-28T12:50:27;-1.55;74.34
72602;DHT22;60644;55.858;37.390;2023-02-28T13:09:56;-1.23;72.94
72602;DHT22;60644;55.858;37.390;2023-02-28T13:12:23;-1.31;73.63
72602;DHT22;60644;55.858;37.390;2023-02-28T13:14:50;-1.25;73.28
72602;DHT22;60644;55.858;37.390;2023-02-28T13:17:25;-1.20;72.83
72602;DHT22;60644;55.858;37.390;2023-02-28T13:25:01;-1.12;73.02
72602;DHT22;60644;55.858;37.390;2023-02-28T13:27:39;-1.13;73.44
72602;DHT22;60644;55.858;37.390;2023-02-28T13:33:36;-1.11;73.35
72602;DHT22;60644;55.858;37.390;2023-02-28T13:38:46;-1.27;74.65
72602;DHT22;60644;55.858;37.390;2023-02-28T13:44:13;-1.05;73.82
72602;DHT22;60644;55.858;37.390;2023-02-28T13:51:52;-0.87;73.12
72602;DHT22;60644;55.858;37.390;2023-02-28T13:54:42;-0.91;73.18
72602;DHT22;60644;55.858;37.390;2023-02-28T14:05:31;-0.74;72.99
72602;DHT22;60644;55.858;37.390;2023-02-28T14:08:19;-0.75;73.05
72602;DHT22;60644;55.858;37.390;2023-02-28T14:10:49;-0.70;72.67
72602;DHT22;60644;55.858;37.390;2023-02-28T14:16:00;-0.67;72.74
72602;DHT22;60644;55.858;37.390;2023-02-28T14:18:38;-0.67;72.70
72602;DHT22;60644;55.858;37.390;2023-02-28T14:21:20;-0.65;72.64
72602;DHT22;60644;55.858;37.390;2023-02-28T14:32:32;-0.65;73.35
72602;DHT22;60644;55.858;37.390;2023-02-28T14:37:39;-0.60;73.11
72602;DHT22;60644;55.858;37.390;2023-02-28T14:40:16;-0.59;73.34
72602;DHT22;60644;55.858;37.390;2023-02-28T14:42:57;-0.57;73.25
72602;DHT22;60644;55.858;37.390;2023-02-28T14:45:24;-0.56;73.40
72602;DHT22;60644;55.858;37.390;2023-02-28T14:47:51;-0.54;73.21
72602;DHT22;60644;55.858;37.390;2023-02-28T14:50:23;-0.57;74.09
72602;DHT22;60644;55.858;37.390;2023-02-28T14:52:53;-0.69;75.11
72602;DHT22;60644;55.858;37.390;2023-02-28T14:55:57;-0.64;74.93
72602;DHT22;60644;55.858;37.390;2023-02-28T14:58:30;-0.59;74.91
72602;DHT22;60644;55.858;37.390;2023-02-28T15:00:59;-0.57;74.71
72602;DHT22;60644;55.858;37.390;2023-02-28T15:03:37;-0.50;74.40
72602;DHT22;60644;55.858;37.390;2023-02-28T15:06:15;-0.45;74.10
72602;DHT22;60644;55.858;37.390;2023-02-28T15:08:44;-0.44;74.25
72602;DHT22;60644;55.858;37.390;2023-02-28T15:11:18;-0.41;74.35
72602;DHT22;60644;55.858;37.390;2023-02-28T15:13:49;-0.39;74.11
72602;DHT22;60644;55.858;37.390;2023-02-28T15:21:30;-0.35;73.96
72602;DHT22;60644;55.858;37.390;2023-02-28T15:24:01;-0.41;75.15
72602;DHT22;60644;55.858;37.390;2023-02-28T15:26:33;-0.37;74.53
72602;DHT22;60644;55.858;37.390;2023-02-28T15:29:23;-0.36;74.40
72602;DHT22;60644;55.858;37.390;2023-02-28T15:32:05;-0.30;74.47
72602;DHT22;60644;55.858;37.390;2023-02-28T15:34:37;-0.26;74.14
72602;DHT22;60644;55.858;37.390;2023-02-28T15:37:28;-0.20;73.96
72602;DHT22;60644;55.858;37.390;2023-02-28T15:39:56;-0.17;73.63
72602;DHT22;60644;55.858;37.390;2023-02-28T15:42:28;-0.17;74.12
72602;DHT22;60644;55.858;37.390;2023-02-28T15:44:54;-0.15;74.01
72602;DHT22;60644;55.858;37.390;2023-02-28T15:47:22;-0.15;74.21
72602;DHT22;60644;55.858;37.390;2023-02-28T15:52:39;-0.11;74.15
72602;DHT22;60644;55.858;37.390;2023-02-28T15:55:27;-0.09;74.15
72602;DHT22;60644;55.858;37.390;2023-02-28T15:57:56;-0.09;74.09
72602;DHT22;60644;55.858;37.390;2023-02-28T16:00:26;-0.09;74.60
72602;DHT22;60644;55.858;37.390;2023-02-28T16:02:53;-0.05;74.22
72602;DHT22;60644;55.858;37.390;2023-02-28T16:05:27;-0.03;74.52
72602;DHT22;60644;55.858;37.390;2023-02-28T16:08:13;-0.01;74.28
72602;DHT22;60644;55.858;37.390;2023-02-28T16:10:39;0.03;73.77
72602;DHT22;60644;55.858;37.390;2023-02-28T16:13:05;0.06;74.31
72602;DHT22;60644;55.858;37.390;2023-02-28T16:15:37;0.09;73.64
72602;DHT22;60644;55.858;37.390;2023-02-28T16:18:12;0.12;73.82
72602;DHT22;60644;55.858;37.390;2023-02-28T16:20:38;0.12;74.23
72602;DHT22;60644;55.858;37.390;2023-02-28T16:23:04;0.16;73.79
72602;DHT22;60644;55.858;37.390;2023-02-28T16:25:39;0.19;73.61
72602;DHT22;60644;55.858;37.390;2023-02-28T16:28:20;0.21;73.41
72602;DHT22;60644;55.858;37.390;2023-02-28T16:30:47;0.22;74.02
72602;DHT22;60644;55.858;37.390;2023-02-28T16:33:13;0.22;74.42
72602;DHT22;60644;55.858;37.390;2023-02-28T16:35:39;0.22;74.09
72602;DHT22;60644;55.858;37.390;2023-02-28T16:38:05;0.20;74.35
72602;DHT22;60644;55.858;37.390;2023-02-28T16:40:34;0.21;74.73
72602;DHT22;60644;55.858;37.390;2023-02-28T16:43:05;0.21;74.28
72602;DHT22;60644;55.858;37.390;2023-02-28T16:45:33;0.17;75.91
72602;DHT22;60644;55.858;37.390;2023-02-28T16:47:59;0.16;75.90
72602;DHT22;60644;55.858;37.390;2023-02-28T16:50:28;0.15;76.21
72602;DHT22;60644;55.858;37.390;2023-02-28T16:52:55;0.16;76.07
72602;DHT22;60644;55.858;37.390;2023-02-28T16:55:26;0.16;76.00
72602;DHT22;60644;55.858;37.390;2023-02-28T16:57:54;0.16;76.57
72602;DHT22;60644;55.858;37.390;2023-02-28T17:00:21;0.16;75.57
72602;DHT22;60644;55.858;37.390;2023-02-28T17:02:47;0.15;76.16
72602;DHT22;60644;55.858;37.390;2023-02-28T17:05:14;0.13;75.75
72602;DHT22;60644;55.858;37.390;2023-02-28T17:07:41;0.12;75.98
72602;DHT22;60644;55.858;37.390;2023-02-28T17:10:19;0.13;75.26
72602;DHT22;60644;55.858;37.390;2023-02-28T17:12:45;0.14;74.97
72602;DHT22;60644;55.858;37.390;2023-02-28T17:15:12;0.13;75.14
72602;DHT22;60644;55.858;37.390;2023-02-28T17:17:39;0.13;74.94
72602;DHT22;60644;55.858;37.390;2023-02-28T17:20:06;0.15;74.76
72602;DHT22;60644;55.858;37.390;2023-02-28T17:22:32;0.15;74.49
72602;DHT22;60644;55.858;37.390;2023-02-28T17:24:58;0.10;74.22
72602;DHT22;60644;55.858;37.390;2023-02-28T17:27:24;0.12;74.06
72602;DHT22;60644;55.858;37.390;2023-02-28T17:29:51;0.08;74.02
72602;DHT22;60644;55.858;37.390;2023-02-28T17:32:17;0.08;73.83
72602;DHT22;60644;55.858;37.390;2023-02-28T17:34:43;0.09;73.70
72602;DHT22;60644;55.858;37.390;2023-02-28T17:37:09;0.16;73.45
72602;DHT22;60644;55.858;37.390;2023-02-28T17:39:35;0.20;73.28
72602;DHT22;60644;55.858;37.390;2023-02-28T17:42:01;0.24;71.31
72602;DHT22;60644;55.858;37.390;2023-02-28T17:44:27;0.12;70.97
72602;DHT22;60644;55.858;37.390;2023-02-28T17:46:54;-0.29;72.09